Detall de PIREP

Printer-friendly versionPDF version

[2012/04/13 14:06:00]
Flight IATA:CT1004
Pilot Number:042
Company ICAO:CAT
Aircraft Type:B738/F
PAX:0
Departing Airport: DTMB
Destination Airport: LIEA
Alternate Airport:LIEO
Online: VATSIM
Route:LOBNA UP161 TUC UM733 OSMAR UM733 CAR UM732 SODIO
Flight Level:F300
No Slew and time accel
No pause
Crash detect
Detect pilot in Cockpit between each 30 and 45 minutes
14:06 Zero fuel Weight: 91661 Lbs, Fuel Weight: 46058 Lbs
14:06 VATSIM:DTMB 131330Z 28019KT 9999 BKN016 22/08 Q0996 NOSIG
14:06 VATSIM:LIEA 131320Z 03013KT 9999 -RA FEW015 SCT025 BKN040 12/10 Q0996
14:06 VOICE CATALONIAN
14:13 Parking Brakes off
14:16 Take-off
14:16 Take off Weight: 137192 Lbs
14:16 Wind: 279º @ 018 Knots Heading: 255º
14:16 POS N35º 45´ 22´´ E010º 44´ 48´´
14:16 Flaps:5 at 163 Knots
14:16 Gear Up: 163 Knots
14:16 Flaps:4 at 151 Knots
14:16 Flaps:3 at 167 Knots
14:17 Flaps:2 at 184 Knots
14:17 Flaps:1 at 211 Knots
14:20 Flaps:0 at 231 Knots
14:31 Wind:234º@024 Knots Heading: 004º Ground Speed: 470 Knots Altitude 25698 ft
14:33 TOC
14:33 Fuel Weight: 42240 Lb
14:46 Wind:231º@014 Knots Heading: 343º Ground Speed: 463 Knots Altitude 29311 ft
14:49 TOD
14:49 Fuel Weight: 40630 Lb
15:01 Wind:340º@020 Knots Heading: 328º Ground Speed: 317 Knots Altitude 11738 ft
15:10 Flaps:1 at 205 Knots
15:11 Flaps:2 at 182 Knots
15:12 Flaps:3 at 183 Knots
15:12 Gear Down: 176 Knots
15:12 Flaps:4 at 176 Knots
15:12 Flaps:6 at 167 Knots
15:12 Flaps:7 at 149 Knots
15:13 Flaps:8 at 137 Knots
15:16 Wind:020º@009 Knots Heading: 023º Ground Speed: 110 Knots Altitude 127 ft
15:16 TouchDown:Rate -491 ft/min Speed: 113 Knots
15:16 VATSIM:LIEA 131450Z 34005KT 300V010 9999 -RA FEW015 BKN045 12/11 Q0996
15:16 Land
15:16 Wind:020º@009 Knots
15:16 Heading: 025º
15:16 Flight Duration: 01:00
15:16 Landing Weight: 131116 Lbs
15:16 POS N40º 37´ 48´´ E008º 17´ 22´´
15:20 Parking brakes on
15:20 Block to Block Duration: 01:07
15:20 Final Fuel: 39202 Lbls
15:20 Spent Fuel: 6856 Lbls
15:20 Flight Length: 286 NM
15:20 TOD Land Length: 64 NM

Exportar CSV

Powered by Drupal - Modified by Danger4k